createdAt,value
2023-04-14T00:02:19.598Z,7.82
2023-04-14T00:04:54.584Z,10.45
2023-04-14T00:07:24.386Z,9.93
2023-04-14T00:09:54.066Z,8.20
2023-04-14T00:12:24.192Z,10.95
2023-04-14T00:14:53.995Z,9.73
2023-04-14T00:17:26.228Z,9.05
2023-04-14T00:19:55.928Z,10.75
2023-04-14T00:22:25.844Z,10.93
2023-04-14T00:24:55.460Z,11.25
2023-04-14T00:27:25.122Z,11.23
2023-04-14T00:29:54.736Z,9.88
2023-04-14T00:32:27.436Z,9.63
2023-04-14T00:34:57.213Z,11.05
2023-04-14T00:37:27.223Z,11.95
2023-04-14T00:39:56.841Z,10.45
2023-04-14T00:42:26.568Z,11.55
2023-04-14T00:44:56.419Z,10.10
2023-04-14T00:47:29.700Z,9.38
2023-04-14T00:49:59.464Z,11.25
2023-04-14T00:52:29.633Z,9.85
2023-04-14T00:55:00.893Z,10.63
2023-04-14T00:57:31.179Z,11.55
2023-04-14T01:00:01.786Z,10.15
2023-04-14T01:02:34.906Z,13.43
2023-04-14T01:05:04.908Z,11.02
2023-04-14T01:07:35.971Z,13.18
2023-04-14T01:10:06.795Z,11.00
2023-04-14T01:12:52.702Z,9.45
2023-04-14T01:15:28.621Z,11.95
2023-04-14T01:18:08.148Z,12.88
2023-04-14T01:20:44.582Z,12.07
2023-04-14T01:23:18.739Z,11.65
2023-04-14T01:26:09.582Z,9.77
2023-04-14T01:28:59.432Z,11.63
2023-04-14T01:31:34.188Z,10.05
2023-04-14T01:34:14.015Z,10.80
2023-04-14T01:36:46.519Z,12.77
2023-04-14T01:39:22.641Z,11.77
2023-04-14T01:41:59.882Z,10.67
2023-04-14T01:44:33.512Z,11.80
2023-04-14T01:47:11.204Z,17.48
2023-04-14T01:49:42.642Z,16.50
2023-04-14T01:52:14.175Z,13.48
2023-04-14T01:54:46.643Z,12.93
2023-04-14T01:57:20.327Z,11.27
2023-04-14T01:59:52.775Z,10.30
2023-04-14T02:02:27.137Z,10.63
2023-04-14T02:04:58.631Z,8.88
2023-04-14T02:07:29.255Z,9.00
2023-04-14T02:10:00.247Z,10.70
2023-04-14T02:12:31.477Z,10.15
2023-04-14T02:15:02.846Z,11.63
2023-04-14T02:17:36.695Z,8.07
2023-04-14T02:20:08.141Z,10.23
2023-04-14T02:22:37.922Z,7.90
2023-04-14T02:25:09.180Z,8.25
2023-04-14T02:27:42.382Z,7.70
2023-04-14T02:30:16.638Z,8.15
2023-04-14T02:32:53.763Z,6.83
2023-04-14T02:35:30.229Z,9.00
2023-04-14T02:38:10.170Z,8.52
2023-04-14T02:40:43.732Z,7.53
2023-04-14T02:43:21.318Z,7.45
2023-04-14T02:45:54.334Z,8.23
2023-04-14T02:48:30.013Z,8.65
2023-04-14T02:53:33.669Z,5.18
2023-04-14T02:56:11.624Z,6.50
2023-04-14T02:58:44.873Z,6.80
2023-04-14T03:01:16.020Z,7.40
2023-04-14T03:03:48.672Z,6.43
2023-04-14T03:06:19.082Z,8.88
2023-04-14T03:08:50.588Z,8.50
2023-04-14T03:11:24.048Z,16.45
2023-04-14T03:13:57.428Z,15.43
2023-04-14T03:16:29.085Z,17.08
2023-04-14T03:19:03.701Z,14.77
2023-04-14T03:21:35.385Z,13.55
2023-04-14T03:24:06.073Z,11.32
2023-04-14T03:26:37.505Z,10.15
2023-04-14T03:29:10.334Z,10.02
2023-04-14T03:31:44.114Z,8.27
2023-04-14T03:34:18.327Z,9.00
2023-04-14T03:36:55.491Z,11.13
2023-04-14T03:39:28.601Z,10.38
2023-04-14T03:41:59.846Z,10.27
2023-04-14T03:44:32.648Z,10.25
2023-04-14T03:47:04.075Z,8.32
2023-04-14T03:49:40.673Z,8.35
2023-04-14T03:52:14.327Z,10.85
2023-04-14T03:54:47.902Z,10.15
2023-04-14T03:57:20.706Z,7.05
2023-04-14T03:59:52.542Z,9.60
2023-04-14T04:02:28.403Z,9.00
2023-04-14T04:05:02.462Z,10.95
2023-04-14T04:07:33.994Z,11.23
2023-04-14T04:10:06.823Z,12.50
2023-04-14T04:12:39.110Z,9.55
2023-04-14T04:15:12.117Z,11.85
2023-04-14T04:17:45.498Z,8.82
2023-04-14T04:20:21.535Z,11.00
2023-04-14T04:22:54.756Z,16.90
2023-04-14T04:25:24.405Z,25.88
2023-04-14T04:28:07.062Z,18.80
2023-04-14T04:30:40.481Z,17.42
2023-04-14T04:33:10.955Z,24.60
2023-04-14T04:35:44.582Z,20.83
2023-04-14T04:38:14.663Z,16.05
2023-04-14T04:40:47.707Z,24.52
2023-04-14T04:43:23.025Z,21.38
2023-04-14T04:46:05.230Z,30.38
2023-04-14T04:48:35.052Z,18.73
2023-04-14T04:51:07.318Z,15.93
2023-04-14T04:53:36.982Z,13.52
2023-04-14T04:56:08.024Z,12.80
2023-04-14T04:58:37.684Z,10.05
2023-04-14T05:01:10.899Z,5.95
2023-04-14T05:03:40.776Z,7.57
2023-04-14T05:06:13.450Z,11.02
2023-04-14T05:08:43.218Z,7.00
2023-04-14T05:11:12.887Z,6.47
2023-04-14T05:13:42.546Z,6.05
2023-04-14T05:16:13.828Z,8.77
2023-04-14T05:18:44.751Z,9.73
2023-04-14T05:21:17.766Z,5.07
2023-04-14T05:23:48.633Z,8.02
2023-04-14T05:28:51.338Z,6.93
2023-04-14T05:31:21.246Z,7.13
2023-04-14T05:33:50.958Z,5.97
2023-04-14T05:36:23.278Z,7.20
2023-04-14T05:38:52.905Z,7.28
2023-04-14T05:41:23.684Z,10.57
2023-04-14T05:43:53.326Z,6.65
2023-04-14T05:46:23.043Z,7.00
2023-04-14T05:48:52.727Z,11.75
2023-04-14T05:51:24.947Z,5.60
2023-04-14T05:53:55.226Z,7.28
2023-04-14T05:56:24.883Z,9.50
2023-04-14T05:58:55.989Z,5.57
2023-04-14T06:01:25.640Z,5.93
2023-04-14T06:03:55.480Z,8.13
2023-04-14T06:06:28.256Z,8.57
2023-04-14T06:08:57.920Z,7.30
2023-04-14T06:11:27.575Z,7.82
2023-04-14T06:13:57.265Z,6.55
2023-04-14T06:16:27.073Z,8.23
2023-04-14T06:18:56.733Z,9.57
2023-04-14T06:21:28.985Z,7.47
2023-04-14T06:23:58.653Z,7.70
2023-04-14T06:26:28.473Z,9.60
2023-04-14T06:28:58.265Z,8.18
2023-04-14T06:31:28.098Z,7.43
2023-04-14T06:33:57.718Z,6.22
2023-04-14T06:36:29.927Z,8.18
2023-04-14T06:39:00.624Z,7.70
2023-04-14T06:41:30.577Z,8.27
2023-04-14T06:44:00.383Z,7.80
2023-04-14T06:46:30.198Z,6.68
2023-04-14T06:49:00.220Z,8.57
2023-04-14T06:51:32.670Z,14.90
2023-04-14T06:54:03.123Z,6.28
2023-04-14T06:56:33.096Z,8.60
2023-04-14T06:59:02.804Z,6.05
2023-04-14T07:01:51.404Z,6.10
2023-04-14T07:04:40.314Z,5.78
2023-04-14T07:07:14.536Z,4.82
2023-04-14T07:09:45.018Z,8.07
2023-04-14T07:12:16.164Z,6.47
2023-04-14T07:14:51.233Z,8.10
2023-04-14T07:17:21.387Z,7.67
2023-04-14T07:19:51.181Z,9.00
2023-04-14T07:22:23.435Z,8.85
2023-04-14T07:24:53.935Z,8.80
2023-04-14T07:27:23.666Z,9.30
2023-04-14T07:29:53.916Z,7.82
2023-04-14T07:32:23.643Z,6.13
2023-04-14T07:34:53.332Z,6.95
2023-04-14T07:37:25.820Z,5.88
2023-04-14T07:39:55.667Z,8.32
2023-04-14T07:42:25.383Z,8.18
2023-04-14T07:44:55.160Z,12.55
2023-04-14T07:47:24.874Z,7.40
2023-04-14T07:49:55.611Z,8.65
2023-04-14T07:52:27.936Z,9.25
2023-04-14T07:54:57.652Z,8.75
2023-04-14T07:57:29.493Z,6.07
2023-04-14T07:59:59.214Z,8.57
2023-04-14T08:02:28.972Z,6.95
2023-04-14T08:04:58.801Z,8.52
2023-04-14T08:07:32.466Z,10.40
2023-04-14T08:10:02.210Z,12.52
2023-04-14T08:12:31.935Z,8.88
2023-04-14T08:15:01.648Z,6.60
2023-04-14T08:17:32.349Z,8.80
2023-04-14T08:20:02.176Z,9.05
2023-04-14T08:22:34.533Z,6.45
2023-04-14T08:25:04.360Z,8.73
2023-04-14T08:27:34.208Z,8.60
2023-04-14T08:30:03.953Z,8.30
2023-04-14T08:32:33.981Z,8.00
2023-04-14T08:35:39.472Z,9.35
2023-04-14T08:37:56.061Z,6.28
2023-04-14T08:40:27.903Z,9.32
2023-04-14T08:42:57.575Z,6.75
2023-04-14T08:45:27.708Z,6.20
2023-04-14T08:48:01.192Z,6.07
2023-04-14T08:50:35.438Z,12.93
2023-04-14T08:53:12.639Z,5.45
2023-04-14T08:55:44.025Z,8.60
2023-04-14T08:58:13.898Z,6.93
2023-04-14T09:00:44.424Z,6.30
2023-04-14T09:03:14.668Z,9.10
2023-04-14T09:05:45.483Z,6.93
2023-04-14T09:08:19.435Z,8.60
2023-04-14T09:10:50.049Z,6.85
2023-04-14T09:13:23.228Z,8.70
2023-04-14T09:15:53.207Z,5.82
2023-04-14T09:18:23.711Z,8.75
2023-04-14T09:21:30.065Z,10.02
2023-04-14T09:23:47.340Z,14.23
2023-04-14T09:26:17.711Z,8.48
2023-04-14T09:28:47.729Z,7.47
2023-04-14T09:31:17.417Z,8.68
2023-04-14T09:33:52.767Z,10.23
2023-04-14T09:36:24.511Z,10.30
2023-04-14T09:38:57.400Z,8.00
2023-04-14T09:41:28.239Z,7.03
2023-04-14T09:43:57.931Z,8.45
2023-04-14T09:46:27.858Z,7.88
2023-04-14T09:48:59.778Z,9.88
2023-04-14T09:51:33.133Z,11.40
2023-04-14T09:54:07.209Z,6.07
2023-04-14T09:56:36.878Z,7.70
2023-04-14T09:59:07.245Z,7.80
2023-04-14T10:01:36.992Z,9.15
2023-04-14T10:04:07.029Z,8.05
2023-04-14T10:06:36.697Z,6.25
2023-04-14T10:09:09.079Z,7.40
2023-04-14T10:11:39.910Z,5.38
2023-04-14T10:14:09.651Z,13.25
2023-04-14T10:16:39.561Z,7.07
2023-04-14T10:19:09.438Z,7.65
2023-04-14T10:21:39.283Z,7.65
2023-04-14T10:24:12.972Z,9.57
2023-04-14T10:26:42.951Z,7.53
2023-04-14T10:29:12.591Z,6.70
2023-04-14T10:31:45.353Z,9.13
2023-04-14T10:34:16.827Z,7.47
2023-04-14T10:36:49.011Z,7.25
2023-04-14T10:39:26.447Z,11.55
2023-04-14T10:41:58.453Z,6.18
2023-04-14T10:44:29.790Z,8.93
2023-04-14T10:47:02.275Z,8.25
2023-04-14T10:49:34.019Z,6.88
2023-04-14T10:52:05.015Z,5.68
2023-04-14T10:54:57.400Z,7.70
2023-04-14T10:57:28.278Z,7.97
2023-04-14T10:59:59.552Z,6.45
2023-04-14T11:02:30.964Z,5.75
2023-04-14T11:05:06.731Z,9.40
2023-04-14T11:07:40.919Z,8.80
2023-04-14T11:10:33.242Z,6.47
2023-04-14T11:13:08.636Z,7.88
2023-04-14T11:15:59.380Z,9.10
2023-04-14T11:18:37.638Z,6.18
2023-04-14T11:21:08.766Z,6.30
2023-04-14T11:23:39.848Z,6.13
2023-04-14T11:26:14.197Z,6.70
2023-04-14T11:28:46.433Z,5.20
2023-04-14T11:31:19.868Z,11.00
2023-04-14T11:33:51.414Z,6.60
2023-04-14T11:36:21.300Z,6.50
2023-04-14T11:38:51.185Z,7.43
2023-04-14T11:41:23.571Z,5.20
2023-04-14T11:43:54.313Z,6.72
2023-04-14T11:46:24.671Z,10.40
2023-04-14T11:48:58.100Z,7.82
2023-04-14T11:51:33.811Z,15.32
2023-04-14T11:54:03.828Z,7.22
2023-04-14T11:56:37.427Z,6.55
2023-04-14T11:59:08.362Z,5.20
2023-04-14T12:01:38.198Z,13.43
2023-04-14T12:04:10.771Z,9.15
2023-04-14T12:06:41.443Z,7.35
2023-04-14T12:09:12.066Z,5.38
2023-04-14T12:11:44.365Z,5.60
2023-04-14T12:14:14.243Z,6.32
2023-04-14T12:16:44.028Z,5.97
2023-04-14T12:19:13.791Z,9.10
2023-04-14T12:21:43.592Z,6.85
2023-04-14T12:24:13.376Z,5.55
2023-04-14T12:26:45.693Z,7.90
2023-04-14T12:29:15.715Z,5.88
2023-04-14T12:31:46.704Z,7.10
2023-04-14T12:34:20.111Z,5.22
2023-04-14T12:36:54.079Z,7.47
2023-04-14T12:39:25.826Z,7.18
2023-04-14T12:42:01.075Z,6.13
2023-04-14T12:44:30.796Z,7.50
2023-04-14T12:47:00.646Z,8.82
2023-04-14T12:49:38.996Z,11.82
2023-04-14T12:52:09.253Z,10.88
2023-04-14T12:54:52.410Z,8.65
2023-04-14T12:57:25.294Z,4.07
2023-04-14T12:59:55.115Z,7.22
2023-04-14T13:02:25.311Z,7.45
2023-04-14T13:04:55.079Z,3.70
2023-04-14T13:07:24.886Z,5.43
2023-04-14T13:09:55.117Z,5.72
2023-04-14T13:12:27.469Z,4.57
2023-04-14T13:14:57.273Z,3.47
2023-04-14T13:17:27.122Z,9.57
2023-04-14T13:19:59.023Z,12.20
2023-04-14T13:22:28.928Z,7.25
2023-04-14T13:25:00.769Z,8.70
2023-04-14T13:27:33.083Z,5.68
2023-04-14T13:30:02.784Z,3.40
2023-04-14T13:32:32.501Z,4.00
2023-04-14T13:35:02.196Z,2.85
2023-04-14T13:37:31.872Z,4.55
2023-04-14T13:40:01.707Z,5.10
2023-04-14T13:42:34.060Z,6.22
2023-04-14T13:45:03.755Z,4.45
2023-04-14T13:47:33.680Z,4.55
2023-04-14T13:50:03.729Z,6.43
2023-04-14T13:52:33.497Z,5.88
2023-04-14T13:55:03.292Z,5.63
2023-04-14T13:57:35.647Z,3.90
2023-04-14T14:00:08.566Z,3.03
2023-04-14T14:02:39.673Z,3.30
2023-04-14T14:05:11.032Z,4.32
2023-04-14T14:07:41.511Z,3.10
2023-04-14T14:10:12.020Z,5.47
2023-04-14T14:12:44.334Z,3.80
2023-04-14T14:15:14.737Z,4.20
2023-04-14T14:17:44.560Z,4.53
2023-04-14T14:20:14.768Z,4.50
2023-04-14T14:22:44.415Z,4.53
2023-04-14T14:25:21.250Z,4.10
2023-04-14T14:27:54.359Z,2.92
2023-04-14T14:30:24.072Z,6.10
2023-04-14T14:32:53.806Z,3.88
2023-04-14T14:35:23.468Z,5.70
2023-04-14T14:37:53.199Z,4.03
2023-04-14T14:40:22.885Z,4.07
2023-04-14T14:42:55.150Z,4.68
2023-04-14T14:45:30.282Z,3.05
2023-04-14T14:48:01.533Z,3.17
2023-04-14T14:50:31.402Z,3.80
2023-04-14T14:53:00.988Z,3.95
2023-04-14T14:55:30.632Z,2.78
2023-04-14T14:58:04.047Z,10.07
2023-04-14T15:00:33.683Z,5.38
2023-04-14T15:03:04.773Z,6.38
2023-04-14T15:05:34.557Z,4.20
2023-04-14T15:08:04.491Z,3.03
2023-04-14T15:10:34.178Z,6.65
2023-04-14T15:13:07.403Z,3.45
2023-04-14T15:15:37.854Z,4.50
2023-04-14T15:18:07.671Z,2.83
2023-04-14T15:20:37.819Z,3.97
2023-04-14T15:23:07.645Z,5.28
2023-04-14T15:25:37.385Z,3.85
2023-04-14T15:28:09.692Z,3.00
2023-04-14T15:30:39.472Z,3.80
2023-04-14T15:33:09.404Z,6.68
2023-04-14T15:35:40.312Z,3.72
2023-04-14T15:38:10.089Z,2.63
2023-04-14T15:40:41.222Z,4.43
2023-04-14T15:43:16.174Z,4.05
2023-04-14T15:45:46.119Z,6.82
2023-04-14T15:48:16.070Z,4.00
2023-04-14T15:50:45.746Z,4.22
2023-04-14T15:53:15.608Z,3.40
2023-04-14T15:55:45.239Z,4.00
2023-04-14T15:58:17.490Z,2.65
2023-04-14T16:00:47.415Z,2.72
2023-04-14T16:03:17.295Z,2.35
2023-04-14T16:05:47.172Z,2.83
2023-04-14T16:08:17.085Z,2.67
2023-04-14T16:10:46.769Z,2.67
2023-04-14T16:13:19.018Z,3.95
2023-04-14T16:15:48.693Z,2.95
2023-04-14T16:18:18.406Z,2.47
2023-04-14T16:20:50.372Z,3.75
2023-04-14T16:23:20.177Z,2.30
2023-04-14T16:25:53.129Z,2.40
2023-04-14T16:28:25.959Z,2.60
2023-04-14T16:31:01.937Z,4.03
2023-04-14T16:33:32.829Z,4.53
2023-04-14T16:36:06.242Z,3.53
2023-04-14T16:38:36.535Z,8.88
2023-04-14T16:41:06.192Z,5.88
2023-04-14T16:43:38.955Z,7.30
2023-04-14T16:46:08.679Z,5.78
2023-04-14T16:48:38.594Z,7.03
2023-04-14T16:51:11.002Z,16.80
2023-04-14T16:53:41.435Z,27.92
2023-04-14T16:56:13.238Z,5.63
2023-04-14T16:58:45.965Z,8.80
2023-04-14T17:01:15.640Z,4.07
2023-04-14T17:03:45.480Z,4.30
2023-04-14T17:06:15.365Z,7.25
2023-04-14T17:08:45.305Z,4.07
2023-04-14T17:11:15.328Z,5.20
2023-04-14T17:13:47.610Z,3.28
2023-04-14T17:16:17.551Z,5.30
2023-04-14T17:18:48.356Z,7.30
2023-04-14T17:21:17.994Z,8.20
2023-04-14T17:23:48.057Z,4.25
2023-04-14T17:26:18.863Z,5.03
2023-04-14T17:28:51.052Z,3.67
2023-04-14T17:31:21.107Z,2.72
2023-04-14T17:33:51.297Z,2.95
2023-04-14T17:36:21.352Z,2.80
2023-04-14T17:38:51.129Z,3.72
2023-04-14T17:41:20.979Z,3.47
2023-04-14T17:43:53.270Z,3.58
2023-04-14T17:46:33.521Z,2.55
2023-04-14T17:49:04.264Z,4.55
2023-04-14T17:51:34.593Z,4.63
2023-04-14T17:54:04.617Z,6.07
2023-04-14T17:56:34.526Z,3.25
2023-04-14T17:59:06.986Z,7.18
2023-04-14T18:01:36.882Z,2.83
2023-04-14T18:04:07.041Z,3.63
2023-04-14T18:06:37.272Z,3.58
2023-04-14T18:09:07.078Z,2.30
2023-04-14T18:11:36.887Z,7.85
2023-04-14T18:14:09.117Z,4.72
2023-04-14T18:16:39.096Z,2.78
2023-04-14T18:19:09.266Z,2.05
2023-04-14T18:21:39.290Z,2.65
2023-04-14T18:26:43.083Z,2.35
2023-04-14T18:29:15.301Z,2.63
2023-04-14T18:31:45.419Z,7.70
2023-04-14T18:34:15.828Z,3.30
2023-04-14T18:36:45.850Z,5.18
2023-04-14T18:39:16.522Z,15.68
2023-04-14T18:41:46.665Z,17.92
2023-04-14T18:44:18.910Z,23.90
2023-04-14T18:46:48.635Z,8.57
2023-04-14T18:49:19.268Z,5.45
2023-04-14T18:51:48.937Z,4.13
2023-04-14T18:54:19.093Z,5.43
2023-04-14T18:56:48.734Z,4.75
2023-04-14T18:59:21.228Z,14.43
2023-04-14T19:01:51.228Z,4.45
2023-04-14T19:04:21.102Z,3.38
2023-04-14T19:06:51.649Z,3.00
2023-04-14T19:09:21.312Z,4.18
2023-04-14T19:11:50.994Z,2.15
2023-04-14T19:14:23.218Z,4.35
2023-04-14T19:16:53.166Z,2.63
2023-04-14T19:19:22.818Z,3.55
2023-04-14T19:21:52.560Z,4.75
2023-04-14T19:24:22.645Z,2.90
2023-04-14T19:26:52.481Z,3.70
2023-04-14T19:29:24.802Z,2.22
2023-04-14T19:31:54.502Z,3.33
2023-04-14T19:34:24.242Z,2.50
2023-04-14T19:36:54.018Z,2.50
2023-04-14T19:39:23.816Z,3.95
2023-04-14T19:41:53.465Z,3.28
2023-04-14T19:44:25.860Z,2.65
2023-04-14T19:46:56.282Z,3.90
2023-04-14T19:49:26.425Z,2.70
2023-04-14T19:51:56.131Z,4.20
2023-04-14T19:54:25.767Z,3.25
2023-04-14T19:56:55.957Z,2.88
2023-04-14T19:59:29.572Z,2.58
2023-04-14T20:02:01.047Z,3.53
2023-04-14T20:04:30.860Z,3.88
2023-04-14T20:07:00.680Z,4.38
2023-04-14T20:09:30.426Z,3.15
2023-04-14T20:12:00.482Z,4.85
2023-04-14T20:14:33.140Z,2.88
2023-04-14T20:17:02.890Z,4.03
2023-04-14T20:19:33.241Z,6.50
2023-04-14T20:22:03.027Z,4.25
2023-04-14T20:24:32.965Z,4.00
2023-04-14T20:27:02.757Z,3.38
2023-04-14T20:29:35.847Z,5.35
2023-04-14T20:32:05.471Z,4.13
2023-04-14T20:34:35.641Z,4.25
2023-04-14T20:37:06.042Z,5.00
2023-04-14T20:39:36.085Z,4.38
2023-04-14T20:42:05.836Z,5.78
2023-04-14T20:44:38.104Z,5.18
2023-04-14T20:47:08.448Z,6.05
2023-04-14T20:49:38.105Z,3.75
2023-04-14T20:52:07.912Z,5.03
2023-04-14T20:54:37.724Z,6.57
2023-04-14T20:57:07.395Z,5.72
2023-04-14T20:59:39.657Z,5.25
2023-04-14T21:02:09.457Z,5.78
2023-04-14T21:04:39.428Z,4.57
2023-04-14T21:07:09.397Z,4.50
2023-04-14T21:09:39.193Z,4.63
2023-04-14T21:12:15.557Z,4.97
2023-04-14T21:15:29.749Z,4.80
2023-04-14T21:17:38.760Z,5.65
2023-04-14T21:20:09.870Z,4.93
2023-04-14T21:22:39.572Z,4.32
2023-04-14T21:25:10.297Z,5.80
2023-04-14T21:27:40.064Z,5.07
2023-04-14T21:30:13.707Z,4.45
2023-04-14T21:32:43.883Z,4.82
2023-04-14T21:35:13.605Z,5.25
2023-04-14T21:37:43.312Z,4.43
2023-04-14T21:40:14.306Z,4.57
2023-04-14T21:42:44.007Z,5.70
2023-04-14T21:45:16.754Z,4.13
2023-04-14T21:47:47.022Z,3.80
2023-04-14T21:50:17.426Z,8.63
2023-04-14T21:52:47.312Z,4.13
2023-04-14T21:55:17.244Z,3.42
2023-04-14T21:57:49.450Z,4.18
2023-04-14T22:00:22.206Z,3.90
2023-04-14T22:02:51.978Z,4.60
2023-04-14T22:05:21.725Z,5.20
2023-04-14T22:07:51.568Z,4.45
2023-04-14T22:10:21.880Z,4.40
2023-04-14T22:12:52.161Z,4.22
2023-04-14T22:15:24.691Z,4.03
2023-04-14T22:17:54.493Z,3.33
2023-04-14T22:20:25.348Z,6.25
2023-04-14T22:22:55.352Z,4.57
2023-04-14T22:25:25.014Z,3.53
2023-04-14T22:27:54.776Z,3.50
2023-04-14T22:30:28.414Z,3.85
2023-04-14T22:32:58.271Z,4.35
2023-04-14T22:35:27.923Z,3.55
2023-04-14T22:37:57.565Z,3.90
2023-04-14T22:40:27.560Z,5.50
2023-04-14T22:42:57.542Z,3.88
2023-04-14T22:45:30.731Z,4.40
2023-04-14T22:48:02.409Z,5.75
2023-04-14T22:50:32.859Z,6.60
2023-04-14T22:53:02.845Z,6.00
2023-04-14T22:55:32.706Z,4.50
2023-04-14T22:58:02.380Z,6.13
2023-04-14T23:00:34.675Z,5.22
2023-04-14T23:03:04.869Z,5.45
2023-04-14T23:05:34.601Z,6.00
2023-04-14T23:08:04.274Z,4.60
2023-04-14T23:10:33.930Z,5.93
2023-04-14T23:13:03.701Z,4.85
2023-04-14T23:15:35.997Z,8.70
2023-04-14T23:18:06.206Z,7.30
2023-04-14T23:20:36.520Z,3.85
2023-04-14T23:23:11.086Z,5.30
2023-04-14T23:25:41.197Z,5.20
2023-04-14T23:28:11.130Z,3.40
2023-04-14T23:30:44.294Z,5.80
2023-04-14T23:33:13.935Z,4.45
2023-04-14T23:35:43.773Z,3.58
2023-04-14T23:38:14.104Z,4.43
2023-04-14T23:40:43.938Z,7.30
2023-04-14T23:43:13.627Z,4.38
2023-04-14T23:45:46.219Z,5.38
2023-04-14T23:48:15.922Z,5.55
2023-04-14T23:51:01.126Z,4.82
2023-04-14T23:53:35.486Z,5.00
2023-04-14T23:56:06.211Z,4.85
2023-04-14T23:58:35.878Z,5.10
